createdAt,value
2023-05-15T00:00:49.086Z,98152.91
2023-05-15T00:03:16.292Z,98149.66
2023-05-15T00:05:43.048Z,98149.91
2023-05-15T00:08:09.510Z,98155.78
2023-05-15T00:10:35.964Z,98154.94
2023-05-15T00:13:02.528Z,98151.84
2023-05-15T00:15:29.028Z,98152.03
2023-05-15T00:17:55.657Z,98149.56
2023-05-15T00:20:22.218Z,98147.84
2023-05-15T00:22:49.206Z,98147.84
2023-05-15T00:25:15.696Z,98150.06
2023-05-15T00:27:42.176Z,98153.66
2023-05-15T00:30:09.258Z,98147.84
2023-05-15T00:32:35.780Z,98147.84
2023-05-15T00:35:02.452Z,98154.78
2023-05-15T00:37:30.519Z,98141.59
2023-05-15T00:39:57.056Z,98149.09
2023-05-15T00:42:25.589Z,98144.41
2023-05-15T00:44:53.737Z,98144.78
2023-05-15T00:47:21.066Z,98144.19
2023-05-15T00:49:49.228Z,98140.97
2023-05-15T00:52:15.826Z,98136.31
2023-05-15T00:54:42.327Z,98147.00
2023-05-15T00:57:09.616Z,98140.09
2023-05-15T00:59:37.489Z,98144.44
2023-05-15T01:02:04.264Z,98148.44
2023-05-15T01:04:31.237Z,98144.78
2023-05-15T01:06:57.930Z,98138.34
2023-05-15T01:09:25.600Z,98136.06
2023-05-15T01:11:55.053Z,98134.84
2023-05-15T01:14:21.631Z,98130.81
2023-05-15T01:21:17.172Z,98126.81
2023-05-15T01:24:02.420Z,98134.66
2023-05-15T01:26:44.038Z,98136.47
2023-05-15T01:29:13.470Z,98136.03
2023-05-15T01:31:42.776Z,98130.38
2023-05-15T01:34:11.416Z,98127.63
2023-05-15T01:36:46.255Z,98127.91
2023-05-15T01:39:18.011Z,98124.91
2023-05-15T01:41:54.285Z,98120.75
2023-05-15T01:44:34.257Z,98119.72
2023-05-15T01:47:08.596Z,98118.91
2023-05-15T01:49:36.018Z,98127.59
2023-05-15T01:52:12.408Z,98119.72
2023-05-15T01:54:40.018Z,98127.56
2023-05-15T01:57:08.893Z,98131.78
2023-05-15T01:59:36.977Z,98131.03
2023-05-15T02:02:05.496Z,98132.91
2023-05-15T02:04:33.779Z,98127.38
2023-05-15T02:07:02.914Z,98134.88
2023-05-15T02:09:30.964Z,98129.72
2023-05-15T02:11:57.909Z,98131.84
2023-05-15T02:14:26.131Z,98138.75
2023-05-15T02:16:52.640Z,98137.44
2023-05-15T02:19:19.309Z,98130.25
2023-05-15T02:21:45.914Z,98131.94
2023-05-15T02:24:13.056Z,98132.88
2023-05-15T02:27:04.538Z,98136.53
2023-05-15T02:29:50.570Z,98132.81
2023-05-15T02:32:29.783Z,98133.34
2023-05-15T02:35:33.782Z,98141.59
2023-05-15T02:38:06.030Z,98133.03
2023-05-15T02:40:36.231Z,98128.16
2023-05-15T02:43:06.295Z,98126.94
2023-05-15T02:45:34.339Z,98129.91
2023-05-15T02:48:02.257Z,98126.38
2023-05-15T02:50:29.197Z,98127.03
2023-05-15T02:53:05.262Z,98123.66
2023-05-15T02:55:31.835Z,98121.09
2023-05-15T02:57:58.877Z,98117.28
2023-05-15T03:00:25.559Z,98119.81
2023-05-15T03:02:52.080Z,98119.53
2023-05-15T03:05:18.907Z,98117.63
2023-05-15T03:07:45.346Z,98121.34
2023-05-15T03:10:11.851Z,98121.13
2023-05-15T03:12:39.366Z,98119.66
2023-05-15T03:15:07.130Z,98121.56
2023-05-15T03:17:33.764Z,98119.06
2023-05-15T03:20:00.513Z,98113.66
2023-05-15T03:22:26.964Z,98110.66
2023-05-15T03:24:53.420Z,98115.97
2023-05-15T03:27:19.847Z,98118.28
2023-05-15T03:29:46.317Z,98114.13
2023-05-15T03:32:12.744Z,98124.41
2023-05-15T03:34:40.970Z,98121.31
2023-05-15T03:37:07.618Z,98126.47
2023-05-15T03:39:34.336Z,98136.16
2023-05-15T03:42:00.782Z,98128.81
2023-05-15T03:44:27.212Z,98135.59
2023-05-15T03:46:53.671Z,98128.31
2023-05-15T03:49:20.124Z,98133.84
2023-05-15T03:51:46.565Z,98132.53
2023-05-15T03:54:13.617Z,98136.41
2023-05-15T03:56:40.188Z,98127.56
2023-05-15T03:59:06.743Z,98125.59
2023-05-15T04:01:35.745Z,98128.34
2023-05-15T04:04:05.697Z,98129.47
2023-05-15T04:06:32.120Z,98136.28
2023-05-15T04:08:58.557Z,98137.00
2023-05-15T04:11:25.027Z,98146.78
2023-05-15T04:13:51.406Z,98141.41
2023-05-15T04:16:18.028Z,98146.44
2023-05-15T04:18:44.489Z,98143.47
2023-05-15T04:21:10.918Z,98146.63
2023-05-15T04:23:37.347Z,98141.25
2023-05-15T04:26:03.805Z,98135.00
2023-05-15T04:28:30.604Z,98139.84
2023-05-15T04:30:58.648Z,98147.38
2023-05-15T04:33:25.602Z,98143.41
2023-05-15T04:35:52.167Z,98145.31
2023-05-15T04:38:18.951Z,98144.94
2023-05-15T04:40:45.650Z,98137.63
2023-05-15T04:43:12.039Z,98146.47
2023-05-15T04:45:38.480Z,98137.78
2023-05-15T04:48:05.229Z,98142.91
2023-05-15T04:50:31.687Z,98145.25
2023-05-15T04:52:58.123Z,98144.97
2023-05-15T04:55:24.641Z,98143.19
2023-05-15T04:57:51.356Z,98135.97
2023-05-15T05:00:17.873Z,98138.59
2023-05-15T05:02:44.379Z,98139.19
2023-05-15T05:05:11.204Z,98133.78
2023-05-15T05:07:37.616Z,98136.00
2023-05-15T05:10:05.339Z,98139.28
2023-05-15T05:12:31.778Z,98144.38
2023-05-15T05:14:58.207Z,98147.06
2023-05-15T05:17:24.772Z,98139.19
2023-05-15T05:19:51.232Z,98139.31
2023-05-15T05:22:17.647Z,98142.81
2023-05-15T05:24:44.049Z,98142.41
2023-05-15T05:27:10.926Z,98139.78
2023-05-15T05:29:37.400Z,98141.16
2023-05-15T05:32:04.016Z,98141.03
2023-05-15T05:34:30.430Z,98141.41
2023-05-15T05:36:56.827Z,98138.09
2023-05-15T05:39:23.406Z,98140.34
2023-05-15T05:41:49.877Z,98141.41
2023-05-15T05:44:16.571Z,98136.31
2023-05-15T05:46:43.027Z,98142.34
2023-05-15T05:49:09.482Z,98138.91
2023-05-15T05:51:36.971Z,98141.97
2023-05-15T05:54:03.930Z,98131.88
2023-05-15T05:56:30.562Z,98132.03
2023-05-15T05:58:57.159Z,98125.81
2023-05-15T06:01:23.621Z,98128.47
2023-05-15T06:03:50.105Z,98125.97
2023-05-15T06:06:16.573Z,98121.03
2023-05-15T06:08:43.180Z,98120.72
2023-05-15T06:11:09.574Z,98115.50
2023-05-15T06:13:36.052Z,98124.66
2023-05-15T06:16:02.500Z,98122.81
2023-05-15T06:18:28.957Z,98123.75
2023-05-15T06:20:55.503Z,98120.22
2023-05-15T06:23:23.713Z,98114.84
2023-05-15T06:25:50.847Z,98111.41
2023-05-15T06:28:17.249Z,98115.38
2023-05-15T06:30:44.120Z,98126.97
2023-05-15T06:33:10.702Z,98123.38
2023-05-15T06:35:37.322Z,98125.31
2023-05-15T06:38:03.952Z,98124.41
2023-05-15T06:40:30.462Z,98119.88
2023-05-15T06:42:56.857Z,98122.28
2023-05-15T06:45:23.454Z,98123.56
2023-05-15T06:47:50.028Z,98126.41
2023-05-15T06:50:16.495Z,98133.91
2023-05-15T06:52:42.871Z,98125.16
2023-05-15T06:55:09.448Z,98117.50
2023-05-15T06:57:35.864Z,98120.66
2023-05-15T07:00:02.434Z,98111.78
2023-05-15T07:02:29.022Z,98119.69
2023-05-15T07:04:56.148Z,98116.19
2023-05-15T07:07:22.664Z,98110.38
2023-05-15T07:09:50.286Z,98111.88
2023-05-15T07:12:16.760Z,98111.56
2023-05-15T07:14:43.234Z,98109.94
2023-05-15T07:17:09.908Z,98108.44
2023-05-15T07:19:36.556Z,98105.69
2023-05-15T07:22:03.562Z,98109.25
2023-05-15T07:24:30.336Z,98110.16
2023-05-15T07:26:58.587Z,98113.34
2023-05-15T07:29:26.108Z,98105.63
2023-05-15T07:31:52.999Z,98098.28
2023-05-15T07:34:19.504Z,98102.88
2023-05-15T07:36:45.986Z,98096.34
2023-05-15T07:39:13.139Z,98097.94
2023-05-15T07:41:39.619Z,98092.97
2023-05-15T07:44:06.371Z,98093.94
2023-05-15T07:46:33.670Z,98094.69
2023-05-15T07:49:00.205Z,98089.69
2023-05-15T07:51:26.686Z,98094.56
2023-05-15T07:53:53.129Z,98093.94
2023-05-15T07:56:19.604Z,98098.03
2023-05-15T07:58:46.057Z,98094.34
2023-05-15T08:01:12.614Z,98087.47
2023-05-15T08:03:39.117Z,98090.06
2023-05-15T08:06:07.287Z,98084.63
2023-05-15T08:08:34.131Z,98088.81
2023-05-15T08:11:00.568Z,98086.53
2023-05-15T08:13:27.182Z,98082.16
2023-05-15T08:15:53.675Z,98082.41
2023-05-15T08:18:20.130Z,98085.25
2023-05-15T08:20:46.613Z,98087.66
2023-05-15T08:23:15.865Z,98087.00
2023-05-15T08:25:42.316Z,98086.25
2023-05-15T08:28:08.919Z,98080.06
2023-05-15T08:30:36.058Z,98091.97
2023-05-15T08:33:02.554Z,98092.78
2023-05-15T08:35:29.116Z,98079.47
2023-05-15T08:37:55.578Z,98089.81
2023-05-15T08:40:34.392Z,98091.66
2023-05-15T08:43:13.817Z,98089.56
2023-05-15T08:45:41.407Z,98082.56
2023-05-15T08:48:11.653Z,98089.50
2023-05-15T08:50:40.125Z,98085.03
2023-05-15T08:53:07.317Z,98084.13
2023-05-15T08:55:34.032Z,98082.91
2023-05-15T08:58:00.845Z,98085.59
2023-05-15T09:00:28.607Z,98085.53
2023-05-15T09:02:55.207Z,98085.03
2023-05-15T09:05:21.747Z,98077.78
2023-05-15T09:07:49.198Z,98084.34
2023-05-15T09:10:16.291Z,98074.34
2023-05-15T09:12:44.511Z,98074.91
2023-05-15T09:15:21.733Z,98070.09
2023-05-15T09:17:48.895Z,98071.56
2023-05-15T09:20:29.255Z,98062.22
2023-05-15T09:22:57.147Z,98060.63
2023-05-15T09:25:38.185Z,98063.75
2023-05-15T09:28:30.172Z,98064.53
2023-05-15T09:31:01.874Z,98065.00
2023-05-15T09:33:31.650Z,98064.34
2023-05-15T09:35:58.222Z,98063.81
2023-05-15T09:38:26.014Z,98062.38
2023-05-15T09:41:04.749Z,98063.81
2023-05-15T09:43:36.495Z,98057.94
2023-05-15T09:46:03.376Z,98056.81
2023-05-15T09:48:31.205Z,98046.69
2023-05-15T09:50:58.388Z,98055.53
2023-05-15T09:53:25.255Z,98053.94
2023-05-15T09:55:53.633Z,98052.84
2023-05-15T09:58:20.161Z,98045.28
2023-05-15T10:00:49.560Z,98047.19
2023-05-15T10:03:19.598Z,98050.75
2023-05-15T10:05:46.534Z,98060.63
2023-05-15T10:08:15.009Z,98050.66
2023-05-15T10:10:41.935Z,98044.94
2023-05-15T10:13:09.999Z,98047.34
2023-05-15T10:15:38.075Z,98044.75
2023-05-15T10:18:05.082Z,98038.63
2023-05-15T10:20:35.589Z,98036.22
2023-05-15T10:23:04.720Z,98033.03
2023-05-15T10:25:58.958Z,98031.94
2023-05-15T10:28:27.052Z,98026.88
2023-05-15T10:30:55.894Z,98023.13
2023-05-15T10:33:23.866Z,98024.38
2023-05-15T10:35:52.138Z,98017.63
2023-05-15T10:38:19.926Z,98018.38
2023-05-15T10:40:47.207Z,98019.59
2023-05-15T10:43:14.364Z,98012.66
2023-05-15T10:45:41.627Z,98015.31
2023-05-15T10:48:12.195Z,98012.03
2023-05-15T10:50:39.002Z,98004.16
2023-05-15T10:53:06.180Z,98005.22
2023-05-15T10:55:32.808Z,97994.59
2023-05-15T10:57:59.596Z,97994.34
2023-05-15T11:00:27.869Z,97992.28
2023-05-15T11:02:56.999Z,97993.16
2023-05-15T11:05:24.432Z,97978.06
2023-05-15T11:08:15.912Z,97977.72
2023-05-15T11:10:42.428Z,97979.31
2023-05-15T11:13:08.999Z,97981.28
2023-05-15T11:15:46.535Z,97985.03
2023-05-15T11:18:13.221Z,97986.13
2023-05-15T11:20:52.076Z,97989.22
2023-05-15T11:23:22.403Z,97997.88
2023-05-15T11:25:57.192Z,97993.56
2023-05-15T11:28:25.267Z,98000.66
2023-05-15T11:30:53.509Z,98001.44
2023-05-15T11:33:20.979Z,97999.25
2023-05-15T11:35:48.478Z,98001.78
2023-05-15T11:38:20.154Z,97995.94
2023-05-15T11:40:48.150Z,97995.13
2023-05-15T11:43:36.494Z,97991.22
2023-05-15T11:46:02.944Z,97999.00
2023-05-15T11:48:33.427Z,97992.56
2023-05-15T11:51:04.244Z,97990.09
2023-05-15T11:53:32.223Z,97989.88
2023-05-15T11:55:59.103Z,97979.44
2023-05-15T11:58:26.289Z,97972.91
2023-05-15T12:00:53.726Z,97974.56
2023-05-15T12:03:38.734Z,97975.84
2023-05-15T12:06:06.195Z,97978.69
2023-05-15T12:08:34.289Z,97982.25
2023-05-15T12:11:01.514Z,97972.25
2023-05-15T12:13:28.318Z,97971.38
2023-05-15T12:15:55.866Z,97968.56
2023-05-15T12:18:22.924Z,97966.19
2023-05-15T12:20:52.912Z,97963.56
2023-05-15T12:23:22.336Z,97950.47
2023-05-15T12:25:50.787Z,97957.44
2023-05-15T12:28:17.693Z,97955.94
2023-05-15T12:30:44.825Z,97952.72
2023-05-15T12:33:12.881Z,97957.78
2023-05-15T12:35:44.737Z,97967.78
2023-05-15T12:38:17.763Z,97960.78
2023-05-15T12:40:49.588Z,97954.66
2023-05-15T12:43:16.009Z,97960.47
2023-05-15T12:45:42.556Z,97959.47
2023-05-15T12:48:14.927Z,97954.38
2023-05-15T12:50:44.698Z,97952.22
2023-05-15T12:53:14.322Z,97954.56
2023-05-15T12:55:41.181Z,97939.09
2023-05-15T12:58:10.385Z,97940.81
2023-05-15T13:00:39.447Z,97929.66
2023-05-15T13:03:09.761Z,97937.28
2023-05-15T13:05:37.260Z,97933.91
2023-05-15T13:08:06.044Z,97927.78
2023-05-15T13:10:34.354Z,97923.13
2023-05-15T13:13:00.956Z,97929.63
2023-05-15T13:15:44.682Z,97919.44
2023-05-15T13:18:16.698Z,97929.94
2023-05-15T13:20:43.961Z,97938.03
2023-05-15T13:23:16.015Z,97940.47
2023-05-15T13:25:43.051Z,97942.44
2023-05-15T13:28:10.832Z,97948.09
2023-05-15T13:30:46.931Z,97950.78
2023-05-15T13:33:13.520Z,97955.06
2023-05-15T13:35:41.092Z,97969.22
2023-05-15T13:38:10.385Z,97973.84
2023-05-15T13:40:38.345Z,97979.75
2023-05-15T13:43:06.506Z,97985.50
2023-05-15T13:45:33.368Z,97988.31
2023-05-15T13:47:59.902Z,97996.06
2023-05-15T13:50:26.751Z,97997.75
2023-05-15T13:52:54.391Z,97996.63
2023-05-15T13:55:23.007Z,97999.09
2023-05-15T13:57:49.822Z,97992.88
2023-05-15T14:00:17.269Z,98004.31
2023-05-15T14:02:44.623Z,98003.66
2023-05-15T14:05:12.839Z,98007.88
2023-05-15T14:07:39.873Z,98007.72
2023-05-15T14:10:07.137Z,98012.28
2023-05-15T14:12:33.701Z,98013.47
2023-05-15T14:15:01.004Z,98012.84
2023-05-15T14:17:28.388Z,98008.19
2023-05-15T14:19:54.930Z,98016.81
2023-05-15T14:22:24.601Z,98019.28
2023-05-15T14:24:52.198Z,98015.56
2023-05-15T14:27:18.642Z,98037.06
2023-05-15T14:29:45.169Z,98035.59
2023-05-15T14:32:11.630Z,98035.78
2023-05-15T14:34:38.159Z,98038.47
2023-05-15T14:37:04.802Z,98041.22
2023-05-15T14:39:31.828Z,98040.47
2023-05-15T14:41:58.426Z,98042.69
2023-05-15T14:44:24.882Z,98045.31
2023-05-15T14:47:08.426Z,98042.59
2023-05-15T14:49:35.991Z,98044.25
2023-05-15T14:52:03.709Z,98044.72
2023-05-15T14:54:30.209Z,98037.78
2023-05-15T14:56:57.651Z,98039.63
2023-05-15T14:59:25.305Z,98040.84
2023-05-15T15:01:51.874Z,98032.03
2023-05-15T15:04:18.375Z,98043.94
2023-05-15T15:06:44.974Z,98045.22
2023-05-15T15:09:11.535Z,98036.81
2023-05-15T15:11:37.969Z,98039.97
2023-05-15T15:14:04.476Z,98041.91
2023-05-15T15:16:31.080Z,98041.50
2023-05-15T15:18:57.616Z,98049.53
2023-05-15T15:21:24.189Z,98039.09
2023-05-15T15:23:50.962Z,98045.22
2023-05-15T15:26:17.417Z,98043.72
2023-05-15T15:28:43.847Z,98046.91
2023-05-15T15:31:10.704Z,98045.97
2023-05-15T15:33:37.383Z,98044.13
2023-05-15T15:36:04.058Z,98042.53
2023-05-15T15:38:30.551Z,98036.34
2023-05-15T15:40:56.963Z,98039.81
2023-05-15T15:43:23.369Z,98039.81
2023-05-15T15:45:49.827Z,98034.69
2023-05-15T15:48:16.303Z,98036.63
2023-05-15T15:50:42.735Z,98035.72
2023-05-15T15:53:09.157Z,98036.97
2023-05-15T15:55:35.556Z,98039.63
2023-05-15T15:58:01.970Z,98031.56
2023-05-15T16:00:28.426Z,98039.38
2023-05-15T16:02:54.942Z,98034.44
2023-05-15T16:05:21.383Z,98034.31
2023-05-15T16:07:47.882Z,98034.81
2023-05-15T16:10:14.410Z,98031.31
2023-05-15T16:12:42.160Z,98041.34
2023-05-15T16:15:21.504Z,98038.03
2023-05-15T16:17:51.361Z,98029.44
2023-05-15T16:20:17.939Z,98040.91
2023-05-15T16:22:44.503Z,98036.13
2023-05-15T16:25:10.970Z,98036.81
2023-05-15T16:27:37.454Z,98030.50
2023-05-15T16:30:04.133Z,98038.31
2023-05-15T16:32:30.800Z,98035.06
2023-05-15T16:34:57.527Z,98029.56
2023-05-15T16:37:23.960Z,98036.94
2023-05-15T16:39:50.447Z,98037.53
2023-05-15T16:42:16.884Z,98024.91
2023-05-15T16:44:43.320Z,98036.72
2023-05-15T16:47:09.724Z,98028.41
2023-05-15T16:49:36.151Z,98029.09
2023-05-15T16:52:02.554Z,98031.28
2023-05-15T16:54:28.959Z,98033.84
2023-05-15T16:56:55.877Z,98032.91
2023-05-15T16:59:22.357Z,98034.28
2023-05-15T17:01:48.844Z,98039.94
2023-05-15T17:04:15.309Z,98038.94
2023-05-15T17:06:41.718Z,98040.28
2023-05-15T17:09:08.119Z,98031.97
2023-05-15T17:11:34.647Z,98037.53
2023-05-15T17:14:01.502Z,98040.19
2023-05-15T17:16:28.133Z,98044.81
2023-05-15T17:18:54.655Z,98042.75
2023-05-15T17:21:21.120Z,98046.44
2023-05-15T17:23:47.524Z,98047.78
2023-05-15T17:26:13.969Z,98055.88
2023-05-15T17:28:40.473Z,98054.03
2023-05-15T17:31:10.702Z,98055.09
2023-05-15T17:33:37.127Z,98053.53
2023-05-15T17:36:03.840Z,98060.81
2023-05-15T17:38:30.300Z,98061.16
2023-05-15T17:40:56.745Z,98063.84
2023-05-15T17:43:23.141Z,98066.16
2023-05-15T17:45:49.636Z,98065.94
2023-05-15T17:48:16.130Z,98063.72
2023-05-15T17:50:42.544Z,98073.53
2023-05-15T17:53:08.950Z,98068.72
2023-05-15T17:55:35.367Z,98073.16
2023-05-15T17:58:01.894Z,98075.47
2023-05-15T18:00:28.328Z,98083.16
2023-05-15T18:02:54.839Z,98068.28
2023-05-15T18:05:21.434Z,98077.31
2023-05-15T18:07:48.164Z,98088.88
2023-05-15T18:10:14.747Z,98082.00
2023-05-15T18:12:41.189Z,98096.38
2023-05-15T18:15:08.093Z,98099.47
2023-05-15T18:17:34.563Z,98094.53
2023-05-15T18:20:01.700Z,98099.41
2023-05-15T18:22:28.112Z,98100.78
2023-05-15T18:24:54.506Z,98104.91
2023-05-15T18:27:20.968Z,98108.34
2023-05-15T18:29:47.398Z,98103.41
2023-05-15T18:32:13.836Z,98109.94
2023-05-15T18:34:40.271Z,98110.94
2023-05-15T18:37:06.689Z,98117.72
2023-05-15T18:39:33.100Z,98114.84
2023-05-15T18:42:00.261Z,98122.00
2023-05-15T18:44:26.675Z,98127.53
2023-05-15T18:46:53.116Z,98121.13
2023-05-15T18:49:19.610Z,98129.69
2023-05-15T18:51:46.061Z,98131.81
2023-05-15T18:54:12.533Z,98131.22
2023-05-15T18:56:40.640Z,98127.34
2023-05-15T18:59:08.936Z,98139.03
2023-05-15T19:01:35.482Z,98142.44
2023-05-15T19:04:03.605Z,98139.97
2023-05-15T19:06:30.924Z,98144.84
2023-05-15T19:08:57.361Z,98153.75
2023-05-15T19:11:23.766Z,98153.69
2023-05-15T19:13:50.284Z,98154.25
2023-05-15T19:16:16.707Z,98164.19
2023-05-15T19:18:43.263Z,98156.97
2023-05-15T19:21:09.856Z,98163.06
2023-05-15T19:23:36.297Z,98159.59
2023-05-15T19:26:02.724Z,98162.94
2023-05-15T19:28:29.160Z,98163.06
2023-05-15T19:30:55.619Z,98165.06
2023-05-15T19:33:22.164Z,98168.50
2023-05-15T19:35:48.625Z,98171.69
2023-05-15T19:38:15.616Z,98172.56
2023-05-15T19:40:44.552Z,98185.16
2023-05-15T19:43:11.372Z,98189.31
2023-05-15T19:45:41.079Z,98191.28
2023-05-15T19:48:07.589Z,98189.66
2023-05-15T19:50:34.189Z,98193.53
2023-05-15T19:53:00.876Z,98200.19
2023-05-15T19:55:27.542Z,98203.50
2023-05-15T19:57:55.907Z,98205.13
2023-05-15T20:00:22.665Z,98206.53
2023-05-15T20:02:49.127Z,98208.03
2023-05-15T20:05:15.828Z,98214.97
2023-05-15T20:07:43.091Z,98222.91
2023-05-15T20:10:10.358Z,98221.50
2023-05-15T20:12:37.136Z,98225.34
2023-05-15T20:15:03.869Z,98220.88
2023-05-15T20:17:30.541Z,98225.16
2023-05-15T20:19:58.994Z,98226.22
2023-05-15T20:22:25.431Z,98237.69
2023-05-15T20:24:52.064Z,98235.59
2023-05-15T20:27:18.560Z,98236.00
2023-05-15T20:29:45.381Z,98238.75
2023-05-15T20:32:13.168Z,98238.16
2023-05-15T20:34:41.824Z,98242.75
2023-05-15T20:37:09.018Z,98238.75
2023-05-15T20:39:35.484Z,98246.53
2023-05-15T20:42:01.975Z,98247.97
2023-05-15T20:44:29.793Z,98241.16
2023-05-15T20:46:56.679Z,98238.28
2023-05-15T20:49:23.410Z,98245.72
2023-05-15T20:51:50.025Z,98242.25
2023-05-15T20:54:16.477Z,98249.69
2023-05-15T20:56:43.013Z,98249.16
2023-05-15T20:59:09.457Z,98246.97
2023-05-15T21:01:36.353Z,98249.19
2023-05-15T21:04:02.969Z,98250.69
2023-05-15T21:06:29.464Z,98248.16
2023-05-15T21:08:55.902Z,98249.34
2023-05-15T21:11:22.819Z,98249.06
2023-05-15T21:13:49.263Z,98253.06
2023-05-15T21:16:15.777Z,98248.97
2023-05-15T21:18:42.294Z,98255.06
2023-05-15T21:21:08.792Z,98255.47
2023-05-15T21:23:38.245Z,98248.50
2023-05-15T21:26:05.231Z,98254.81
2023-05-15T21:28:31.737Z,98254.53
2023-05-15T21:30:58.384Z,98251.25
2023-05-15T21:33:24.774Z,98266.81
2023-05-15T21:35:51.480Z,98254.84
2023-05-15T21:38:18.294Z,98259.59
2023-05-15T21:40:44.896Z,98263.19
2023-05-15T21:43:11.300Z,98260.72
2023-05-15T21:45:37.699Z,98261.88
2023-05-15T21:48:04.368Z,98266.41
2023-05-15T21:50:30.852Z,98259.84
2023-05-15T21:52:57.394Z,98261.63
2023-05-15T21:55:25.507Z,98262.97
2023-05-15T21:57:51.900Z,98255.66
2023-05-15T22:00:18.573Z,98262.09
2023-05-15T22:02:45.302Z,98268.47
2023-05-15T22:05:12.016Z,98263.38
2023-05-15T22:07:38.423Z,98268.28
2023-05-15T22:10:05.419Z,98269.38
2023-05-15T22:12:32.195Z,98274.34
2023-05-15T22:14:59.721Z,98271.06
2023-05-15T22:17:29.052Z,98279.41
2023-05-15T22:20:02.564Z,98273.13
2023-05-15T22:22:29.113Z,98269.16
2023-05-15T22:24:55.885Z,98277.69
2023-05-15T22:27:22.310Z,98277.13
2023-05-15T22:29:48.758Z,98279.78
2023-05-15T22:32:15.327Z,98274.09
2023-05-15T22:34:41.732Z,98275.28
2023-05-15T22:37:08.174Z,98276.91
2023-05-15T22:39:34.820Z,98277.91
2023-05-15T22:42:01.228Z,98277.09
2023-05-15T22:44:28.405Z,98279.53
2023-05-15T22:46:54.845Z,98278.94
2023-05-15T22:49:25.296Z,98276.50
2023-05-15T22:51:52.427Z,98285.41
2023-05-15T22:54:21.936Z,98278.47
2023-05-15T22:56:51.443Z,98282.97
2023-05-15T22:59:18.346Z,98286.25
2023-05-15T23:01:45.628Z,98290.13
2023-05-15T23:04:12.677Z,98293.16
2023-05-15T23:06:41.129Z,98297.44
2023-05-15T23:09:08.418Z,98298.28
2023-05-15T23:11:35.515Z,98294.19
2023-05-15T23:14:02.886Z,98297.44
2023-05-15T23:16:29.517Z,98286.28
2023-05-15T23:18:57.556Z,98289.91
2023-05-15T23:21:24.261Z,98293.16
2023-05-15T23:23:50.782Z,98290.50
2023-05-15T23:26:17.311Z,98293.75
2023-05-15T23:28:43.771Z,98305.91
2023-05-15T23:31:13.066Z,98296.94
2023-05-15T23:33:39.813Z,98292.13
2023-05-15T23:36:06.573Z,98296.38
2023-05-15T23:38:33.103Z,98301.81
2023-05-15T23:40:59.572Z,98296.94
2023-05-15T23:43:26.254Z,98300.41
2023-05-15T23:45:52.706Z,98289.03
2023-05-15T23:48:19.250Z,98301.63
2023-05-15T23:50:45.731Z,98286.63
2023-05-15T23:53:12.140Z,98283.78
2023-05-15T23:55:38.556Z,98294.13
2023-05-15T23:58:05.063Z,98288.63
